Winter Beach, Florida
Current Conditions -  °F | °C
As of 9:53 AM on Wednesday 22 Oct 2014 (Local Time) from KVRB Reporting Station
Overcast Overcast  
Wind Chill: 70°   Ceiling: 400
Heat Index: 70°   Visibility: 9mi
Dew Point: 69°   Wind: 3mph
Humidity: 97%   Direction: 320°NW
Pressure: 30"   Gusts: NA
Location:  27.72°N, 80.42°W
Report Text: KVRB 221353Z 32003KT 9SM OVC004 21/21 A3000 RMK AO2 SLP156 T02110206
Loading
Personal Weather Stations






























Interactive Weather Map
Tropical Storm Tracking
New forecast layout! Learn more

10-Day Weather Forecast

Advertisements
Track Severe Weather on mobile